sensor_id;sensor_type;location;lat;lon;timestamp;P1;durP1;ratioP1;P2;durP2;ratioP2
2724;SDS011;1370;52.596;13.112;2023-08-07T00:01:24;6.57;;;3.13;;
2724;SDS011;1370;52.596;13.112;2023-08-07T00:03:49;5.50;;;3.43;;
2724;SDS011;1370;52.596;13.112;2023-08-07T00:06:15;3.53;;;3.23;;
2724;SDS011;1370;52.596;13.112;2023-08-07T00:08:40;6.13;;;3.97;;
2724;SDS011;1370;52.596;13.112;2023-08-07T00:11:06;3.27;;;2.97;;
2724;SDS011;1370;52.596;13.112;2023-08-07T00:13:32;9.83;;;4.07;;
2724;SDS011;1370;52.596;13.112;2023-08-07T00:15:57;5.00;;;3.60;;
2724;SDS011;1370;52.596;13.112;2023-08-07T00:18:22;20.57;;;4.70;;
2724;SDS011;1370;52.596;13.112;2023-08-07T00:20:48;6.13;;;4.40;;
2724;SDS011;1370;52.596;13.112;2023-08-07T00:23:13;3.80;;;3.37;;
2724;SDS011;1370;52.596;13.112;2023-08-07T00:25:38;4.10;;;3.80;;
2724;SDS011;1370;52.596;13.112;2023-08-07T00:28:04;4.10;;;3.80;;
2724;SDS011;1370;52.596;13.112;2023-08-07T00:30:29;6.20;;;4.13;;
2724;SDS011;1370;52.596;13.112;2023-08-07T00:32:54;5.40;;;3.50;;
2724;SDS011;1370;52.596;13.112;2023-08-07T00:35:20;4.40;;;4.03;;
2724;SDS011;1370;52.596;13.112;2023-08-07T00:37:45;6.23;;;4.10;;
2724;SDS011;1370;52.596;13.112;2023-08-07T00:40:10;15.03;;;4.57;;
2724;SDS011;1370;52.596;13.112;2023-08-07T00:42:36;4.20;;;3.40;;
2724;SDS011;1370;52.596;13.112;2023-08-07T00:45:01;5.60;;;5.10;;
2724;SDS011;1370;52.596;13.112;2023-08-07T00:47:26;4.67;;;3.90;;
2724;SDS011;1370;52.596;13.112;2023-08-07T00:49:52;5.33;;;4.07;;
2724;SDS011;1370;52.596;13.112;2023-08-07T00:52:17;6.50;;;4.30;;
2724;SDS011;1370;52.596;13.112;2023-08-07T00:54:42;5.53;;;4.73;;
2724;SDS011;1370;52.596;13.112;2023-08-07T00:57:11;4.83;;;3.30;;
2724;SDS011;1370;52.596;13.112;2023-08-07T00:59:38;7.03;;;3.43;;
2724;SDS011;1370;52.596;13.112;2023-08-07T01:02:03;4.57;;;4.07;;
2724;SDS011;1370;52.596;13.112;2023-08-07T01:04:29;4.60;;;3.43;;
2724;SDS011;1370;52.596;13.112;2023-08-07T01:06:54;5.50;;;4.97;;
2724;SDS011;1370;52.596;13.112;2023-08-07T01:09:19;5.20;;;3.73;;
2724;SDS011;1370;52.596;13.112;2023-08-07T01:11:48;8.10;;;3.47;;
2724;SDS011;1370;52.596;13.112;2023-08-07T01:14:28;12.30;;;3.80;;
2724;SDS011;1370;52.596;13.112;2023-08-07T01:17:02;5.50;;;3.90;;
2724;SDS011;1370;52.596;13.112;2023-08-07T01:19:31;9.33;;;4.87;;
2724;SDS011;1370;52.596;13.112;2023-08-07T01:22:15;4.20;;;3.80;;
2724;SDS011;1370;52.596;13.112;2023-08-07T01:24:43;6.83;;;3.60;;
2724;SDS011;1370;52.596;13.112;2023-08-07T01:27:19;4.43;;;4.00;;
2724;SDS011;1370;52.596;13.112;2023-08-07T01:30:12;7.30;;;3.60;;
2724;SDS011;1370;52.596;13.112;2023-08-07T01:32:48;9.47;;;4.00;;
2724;SDS011;1370;52.596;13.112;2023-08-07T01:35:35;8.47;;;4.00;;
2724;SDS011;1370;52.596;13.112;2023-08-07T01:38:02;7.20;;;3.57;;
2724;SDS011;1370;52.596;13.112;2023-08-07T01:40:28;3.90;;;3.60;;
2724;SDS011;1370;52.596;13.112;2023-08-07T01:42:55;4.20;;;3.80;;
2724;SDS011;1370;52.596;13.112;2023-08-07T01:45:24;9.40;;;3.40;;
2724;SDS011;1370;52.596;13.112;2023-08-07T01:47:49;8.70;;;3.30;;
2724;SDS011;1370;52.596;13.112;2023-08-07T01:50:15;6.93;;;3.87;;
2724;SDS011;1370;52.596;13.112;2023-08-07T01:52:40;4.63;;;4.17;;
2724;SDS011;1370;52.596;13.112;2023-08-07T01:55:05;5.43;;;4.20;;
2724;SDS011;1370;52.596;13.112;2023-08-07T01:57:31;7.37;;;3.50;;
2724;SDS011;1370;52.596;13.112;2023-08-07T01:59:56;6.37;;;4.20;;
2724;SDS011;1370;52.596;13.112;2023-08-07T02:02:21;6.97;;;4.57;;
2724;SDS011;1370;52.596;13.112;2023-08-07T02:04:47;9.90;;;5.17;;
2724;SDS011;1370;52.596;13.112;2023-08-07T02:07:12;5.70;;;4.47;;
2724;SDS011;1370;52.596;13.112;2023-08-07T02:09:37;4.53;;;4.20;;
2724;SDS011;1370;52.596;13.112;2023-08-07T02:12:03;5.07;;;4.57;;
2724;SDS011;1370;52.596;13.112;2023-08-07T02:14:28;8.50;;;4.40;;
2724;SDS011;1370;52.596;13.112;2023-08-07T02:16:53;7.87;;;4.33;;
2724;SDS011;1370;52.596;13.112;2023-08-07T02:19:19;13.60;;;4.13;;
2724;SDS011;1370;52.596;13.112;2023-08-07T02:21:44;4.93;;;4.43;;
2724;SDS011;1370;52.596;13.112;2023-08-07T02:24:09;5.77;;;4.50;;
2724;SDS011;1370;52.596;13.112;2023-08-07T02:26:35;7.73;;;5.50;;
2724;SDS011;1370;52.596;13.112;2023-08-07T02:29:00;6.77;;;4.87;;
2724;SDS011;1370;52.596;13.112;2023-08-07T02:31:25;6.73;;;5.57;;
2724;SDS011;1370;52.596;13.112;2023-08-07T02:33:50;6.63;;;5.50;;
2724;SDS011;1370;52.596;13.112;2023-08-07T02:36:16;6.73;;;5.07;;
2724;SDS011;1370;52.596;13.112;2023-08-07T02:38:41;5.90;;;5.00;;
2724;SDS011;1370;52.596;13.112;2023-08-07T02:41:06;10.93;;;5.63;;
2724;SDS011;1370;52.596;13.112;2023-08-07T02:43:31;11.03;;;5.50;;
2724;SDS011;1370;52.596;13.112;2023-08-07T02:45:59;9.97;;;5.53;;
2724;SDS011;1370;52.596;13.112;2023-08-07T02:48:24;10.50;;;4.57;;
2724;SDS011;1370;52.596;13.112;2023-08-07T02:50:49;5.67;;;5.17;;
2724;SDS011;1370;52.596;13.112;2023-08-07T02:53:16;7.97;;;5.20;;
2724;SDS011;1370;52.596;13.112;2023-08-07T02:55:42;14.87;;;5.30;;
2724;SDS011;1370;52.596;13.112;2023-08-07T02:58:08;5.87;;;5.27;;
2724;SDS011;1370;52.596;13.112;2023-08-07T03:00:34;9.07;;;6.63;;
2724;SDS011;1370;52.596;13.112;2023-08-07T03:03:00;7.83;;;4.70;;
2724;SDS011;1370;52.596;13.112;2023-08-07T03:05:25;8.40;;;6.20;;
2724;SDS011;1370;52.596;13.112;2023-08-07T03:07:50;10.13;;;5.23;;
2724;SDS011;1370;52.596;13.112;2023-08-07T03:10:16;5.40;;;4.20;;
2724;SDS011;1370;52.596;13.112;2023-08-07T03:12:41;4.40;;;4.00;;
2724;SDS011;1370;52.596;13.112;2023-08-07T03:15:06;4.83;;;4.43;;
2724;SDS011;1370;52.596;13.112;2023-08-07T03:17:32;5.30;;;4.80;;
2724;SDS011;1370;52.596;13.112;2023-08-07T03:19:57;8.20;;;5.30;;
2724;SDS011;1370;52.596;13.112;2023-08-07T03:22:23;6.93;;;5.20;;
2724;SDS011;1370;52.596;13.112;2023-08-07T03:24:48;6.23;;;4.60;;
2724;SDS011;1370;52.596;13.112;2023-08-07T03:27:14;6.10;;;5.33;;
2724;SDS011;1370;52.596;13.112;2023-08-07T03:29:39;5.53;;;4.87;;
2724;SDS011;1370;52.596;13.112;2023-08-07T03:32:05;8.33;;;5.70;;
2724;SDS011;1370;52.596;13.112;2023-08-07T03:34:30;7.93;;;6.20;;
2724;SDS011;1370;52.596;13.112;2023-08-07T03:36:55;9.20;;;5.60;;
2724;SDS011;1370;52.596;13.112;2023-08-07T03:39:21;8.77;;;6.33;;
2724;SDS011;1370;52.596;13.112;2023-08-07T03:41:46;8.20;;;5.60;;
2724;SDS011;1370;52.596;13.112;2023-08-07T03:44:11;6.67;;;5.10;;
2724;SDS011;1370;52.596;13.112;2023-08-07T03:46:36;7.87;;;6.17;;
2724;SDS011;1370;52.596;13.112;2023-08-07T03:49:02;5.97;;;5.37;;
2724;SDS011;1370;52.596;13.112;2023-08-07T03:51:27;8.80;;;6.07;;
2724;SDS011;1370;52.596;13.112;2023-08-07T03:53:54;5.57;;;5.07;;
2724;SDS011;1370;52.596;13.112;2023-08-07T03:56:19;14.00;;;6.40;;
2724;SDS011;1370;52.596;13.112;2023-08-07T03:58:44;7.00;;;6.33;;
2724;SDS011;1370;52.596;13.112;2023-08-07T04:01:10;5.97;;;5.37;;
2724;SDS011;1370;52.596;13.112;2023-08-07T04:03:35;5.50;;;5.00;;
2724;SDS011;1370;52.596;13.112;2023-08-07T04:06:02;6.30;;;5.53;;
2724;SDS011;1370;52.596;13.112;2023-08-07T04:08:27;9.33;;;5.60;;
2724;SDS011;1370;52.596;13.112;2023-08-07T04:10:59;6.30;;;5.63;;
2724;SDS011;1370;52.596;13.112;2023-08-07T04:13:26;7.50;;;4.93;;
2724;SDS011;1370;52.596;13.112;2023-08-07T04:15:51;5.70;;;5.20;;
2724;SDS011;1370;52.596;13.112;2023-08-07T04:18:17;6.67;;;4.83;;
2724;SDS011;1370;52.596;13.112;2023-08-07T04:20:42;6.73;;;5.30;;
2724;SDS011;1370;52.596;13.112;2023-08-07T04:23:07;8.80;;;4.90;;
2724;SDS011;1370;52.596;13.112;2023-08-07T04:25:33;8.40;;;5.83;;
2724;SDS011;1370;52.596;13.112;2023-08-07T04:27:59;6.43;;;5.40;;
2724;SDS011;1370;52.596;13.112;2023-08-07T04:30:24;8.50;;;4.90;;
2724;SDS011;1370;52.596;13.112;2023-08-07T04:32:49;8.80;;;4.80;;
2724;SDS011;1370;52.596;13.112;2023-08-07T04:35:15;6.43;;;5.50;;
2724;SDS011;1370;52.596;13.112;2023-08-07T04:37:40;5.70;;;4.33;;
2724;SDS011;1370;52.596;13.112;2023-08-07T04:40:05;5.70;;;5.10;;
2724;SDS011;1370;52.596;13.112;2023-08-07T04:42:33;7.50;;;5.00;;
2724;SDS011;1370;52.596;13.112;2023-08-07T04:44:58;6.00;;;5.40;;
2724;SDS011;1370;52.596;13.112;2023-08-07T04:47:24;8.07;;;4.90;;
2724;SDS011;1370;52.596;13.112;2023-08-07T04:49:49;9.20;;;4.80;;
2724;SDS011;1370;52.596;13.112;2023-08-07T04:52:14;10.80;;;4.93;;
2724;SDS011;1370;52.596;13.112;2023-08-07T04:54:40;5.70;;;4.80;;
2724;SDS011;1370;52.596;13.112;2023-08-07T04:57:05;4.37;;;4.03;;
2724;SDS011;1370;52.596;13.112;2023-08-07T04:59:30;5.90;;;5.30;;
2724;SDS011;1370;52.596;13.112;2023-08-07T05:01:56;5.87;;;5.17;;
2724;SDS011;1370;52.596;13.112;2023-08-07T05:04:22;6.20;;;4.90;;
2724;SDS011;1370;52.596;13.112;2023-08-07T05:06:47;4.70;;;4.20;;
2724;SDS011;1370;52.596;13.112;2023-08-07T05:09:13;4.90;;;3.93;;
2724;SDS011;1370;52.596;13.112;2023-08-07T05:11:39;5.27;;;4.00;;
2724;SDS011;1370;52.596;13.112;2023-08-07T05:14:04;5.40;;;4.60;;
2724;SDS011;1370;52.596;13.112;2023-08-07T05:16:29;7.50;;;4.83;;
2724;SDS011;1370;52.596;13.112;2023-08-07T05:18:54;7.50;;;4.87;;
2724;SDS011;1370;52.596;13.112;2023-08-07T05:21:20;5.93;;;5.43;;
2724;SDS011;1370;52.596;13.112;2023-08-07T05:23:45;6.63;;;4.00;;
2724;SDS011;1370;52.596;13.112;2023-08-07T05:26:10;5.53;;;4.70;;
2724;SDS011;1370;52.596;13.112;2023-08-07T05:28:36;4.00;;;3.67;;
2724;SDS011;1370;52.596;13.112;2023-08-07T05:31:01;5.23;;;4.73;;
2724;SDS011;1370;52.596;13.112;2023-08-07T05:33:26;4.93;;;4.03;;
2724;SDS011;1370;52.596;13.112;2023-08-07T05:35:51;4.70;;;3.47;;
2724;SDS011;1370;52.596;13.112;2023-08-07T05:38:17;4.60;;;4.20;;
2724;SDS011;1370;52.596;13.112;2023-08-07T05:40:43;4.80;;;4.17;;
2724;SDS011;1370;52.596;13.112;2023-08-07T05:43:08;4.53;;;3.73;;
2724;SDS011;1370;52.596;13.112;2023-08-07T05:45:33;4.87;;;3.73;;
2724;SDS011;1370;52.596;13.112;2023-08-07T05:47:59;8.30;;;3.93;;
2724;SDS011;1370;52.596;13.112;2023-08-07T05:50:24;5.87;;;3.33;;
2724;SDS011;1370;52.596;13.112;2023-08-07T05:52:49;4.27;;;3.87;;
2724;SDS011;1370;52.596;13.112;2023-08-07T05:55:14;4.60;;;3.60;;
2724;SDS011;1370;52.596;13.112;2023-08-07T05:57:40;7.70;;;4.27;;
2724;SDS011;1370;52.596;13.112;2023-08-07T06:00:05;8.37;;;5.60;;
2724;SDS011;1370;52.596;13.112;2023-08-07T06:02:32;4.97;;;3.83;;
2724;SDS011;1370;52.596;13.112;2023-08-07T06:04:57;4.67;;;4.20;;
2724;SDS011;1370;52.596;13.112;2023-08-07T06:07:23;4.40;;;4.00;;
2724;SDS011;1370;52.596;13.112;2023-08-07T06:09:48;3.57;;;2.83;;
2724;SDS011;1370;52.596;13.112;2023-08-07T06:12:13;3.60;;;3.30;;
2724;SDS011;1370;52.596;13.112;2023-08-07T06:14:39;4.90;;;3.63;;
2724;SDS011;1370;52.596;13.112;2023-08-07T06:17:04;5.80;;;4.60;;
2724;SDS011;1370;52.596;13.112;2023-08-07T06:19:29;7.30;;;4.07;;
2724;SDS011;1370;52.596;13.112;2023-08-07T06:21:54;4.33;;;3.20;;
2724;SDS011;1370;52.596;13.112;2023-08-07T06:24:20;6.63;;;3.77;;
2724;SDS011;1370;52.596;13.112;2023-08-07T06:26:45;7.60;;;3.73;;
2724;SDS011;1370;52.596;13.112;2023-08-07T06:29:10;8.83;;;3.57;;
2724;SDS011;1370;52.596;13.112;2023-08-07T06:31:36;3.33;;;3.13;;
2724;SDS011;1370;52.596;13.112;2023-08-07T06:34:01;3.00;;;2.70;;
2724;SDS011;1370;52.596;13.112;2023-08-07T06:36:26;2.87;;;2.57;;
2724;SDS011;1370;52.596;13.112;2023-08-07T06:38:52;4.10;;;2.40;;
2724;SDS011;1370;52.596;13.112;2023-08-07T06:41:17;4.70;;;3.43;;
2724;SDS011;1370;52.596;13.112;2023-08-07T06:43:42;3.27;;;2.83;;
2724;SDS011;1370;52.596;13.112;2023-08-07T06:46:08;8.50;;;3.47;;
2724;SDS011;1370;52.596;13.112;2023-08-07T06:48:33;5.93;;;3.73;;
2724;SDS011;1370;52.596;13.112;2023-08-07T06:50:58;5.40;;;3.00;;
2724;SDS011;1370;52.596;13.112;2023-08-07T06:53:24;3.57;;;2.90;;
2724;SDS011;1370;52.596;13.112;2023-08-07T06:55:49;5.10;;;2.77;;
2724;SDS011;1370;52.596;13.112;2023-08-07T06:58:14;4.40;;;3.20;;
2724;SDS011;1370;52.596;13.112;2023-08-07T07:00:40;7.30;;;2.30;;
2724;SDS011;1370;52.596;13.112;2023-08-07T07:03:06;2.97;;;2.63;;
2724;SDS011;1370;52.596;13.112;2023-08-07T07:05:32;11.90;;;3.27;;
2724;SDS011;1370;52.596;13.112;2023-08-07T07:07:57;3.60;;;2.50;;
2724;SDS011;1370;52.596;13.112;2023-08-07T07:10:23;3.07;;;2.77;;
2724;SDS011;1370;52.596;13.112;2023-08-07T07:12:48;6.93;;;2.90;;
2724;SDS011;1370;52.596;13.112;2023-08-07T07:15:13;2.80;;;2.60;;
2724;SDS011;1370;52.596;13.112;2023-08-07T07:17:39;10.40;;;2.40;;
2724;SDS011;1370;52.596;13.112;2023-08-07T07:20:04;5.63;;;2.70;;
2724;SDS011;1370;52.596;13.112;2023-08-07T07:22:30;3.47;;;2.40;;
2724;SDS011;1370;52.596;13.112;2023-08-07T07:24:55;7.17;;;2.43;;
2724;SDS011;1370;52.596;13.112;2023-08-07T07:27:20;4.93;;;3.00;;
2724;SDS011;1370;52.596;13.112;2023-08-07T07:29:47;3.77;;;2.67;;
2724;SDS011;1370;52.596;13.112;2023-08-07T07:32:12;3.57;;;3.20;;
2724;SDS011;1370;52.596;13.112;2023-08-07T07:34:38;4.00;;;2.13;;
2724;SDS011;1370;52.596;13.112;2023-08-07T07:37:03;3.50;;;2.47;;
2724;SDS011;1370;52.596;13.112;2023-08-07T07:39:28;5.13;;;3.00;;
2724;SDS011;1370;52.596;13.112;2023-08-07T07:41:55;8.13;;;3.50;;
2724;SDS011;1370;52.596;13.112;2023-08-07T07:44:20;3.10;;;2.47;;
2724;SDS011;1370;52.596;13.112;2023-08-07T07:46:45;3.30;;;2.40;;
2724;SDS011;1370;52.596;13.112;2023-08-07T07:49:11;2.50;;;2.30;;
2724;SDS011;1370;52.596;13.112;2023-08-07T07:51:36;3.10;;;2.20;;
2724;SDS011;1370;52.596;13.112;2023-08-07T07:54:02;2.70;;;1.73;;
2724;SDS011;1370;52.596;13.112;2023-08-07T07:56:27;2.53;;;2.03;;
2724;SDS011;1370;52.596;13.112;2023-08-07T07:58:53;3.50;;;2.43;;
2724;SDS011;1370;52.596;13.112;2023-08-07T08:01:18;8.90;;;2.63;;
2724;SDS011;1370;52.596;13.112;2023-08-07T08:03:43;3.73;;;2.37;;
2724;SDS011;1370;52.596;13.112;2023-08-07T08:06:10;4.90;;;2.50;;
2724;SDS011;1370;52.596;13.112;2023-08-07T08:08:36;8.07;;;3.40;;
2724;SDS011;1370;52.596;13.112;2023-08-07T08:11:02;6.63;;;3.10;;
2724;SDS011;1370;52.596;13.112;2023-08-07T08:13:27;3.97;;;3.00;;
2724;SDS011;1370;52.596;13.112;2023-08-07T08:15:52;4.43;;;2.57;;
2724;SDS011;1370;52.596;13.112;2023-08-07T08:18:17;3.17;;;2.97;;
2724;SDS011;1370;52.596;13.112;2023-08-07T08:20:43;3.10;;;2.20;;
2724;SDS011;1370;52.596;13.112;2023-08-07T08:23:09;8.30;;;2.93;;
2724;SDS011;1370;52.596;13.112;2023-08-07T08:25:34;3.40;;;2.43;;
2724;SDS011;1370;52.596;13.112;2023-08-07T08:27:59;5.37;;;2.90;;
2724;SDS011;1370;52.596;13.112;2023-08-07T08:30:25;3.20;;;2.87;;
2724;SDS011;1370;52.596;13.112;2023-08-07T08:32:50;4.63;;;2.77;;
2724;SDS011;1370;52.596;13.112;2023-08-07T08:35:16;5.97;;;2.57;;
2724;SDS011;1370;52.596;13.112;2023-08-07T08:37:41;2.50;;;2.20;;
2724;SDS011;1370;52.596;13.112;2023-08-07T08:40:08;11.63;;;3.20;;
2724;SDS011;1370;52.596;13.112;2023-08-07T08:42:34;2.40;;;2.20;;
2724;SDS011;1370;52.596;13.112;2023-08-07T08:44:59;3.10;;;2.10;;
2724;SDS011;1370;52.596;13.112;2023-08-07T08:47:26;3.00;;;2.60;;
2724;SDS011;1370;52.596;13.112;2023-08-07T08:49:57;7.33;;;2.63;;
2724;SDS011;1370;52.596;13.112;2023-08-07T08:52:27;2.50;;;2.13;;
2724;SDS011;1370;52.596;13.112;2023-08-07T08:54:53;2.30;;;2.10;;
2724;SDS011;1370;52.596;13.112;2023-08-07T08:57:19;3.50;;;2.37;;
2724;SDS011;1370;52.596;13.112;2023-08-07T08:59:45;5.03;;;2.43;;
2724;SDS011;1370;52.596;13.112;2023-08-07T09:02:10;2.87;;;2.57;;
2724;SDS011;1370;52.596;13.112;2023-08-07T09:04:36;9.43;;;2.70;;
2724;SDS011;1370;52.596;13.112;2023-08-07T09:07:02;4.00;;;2.30;;
2724;SDS011;1370;52.596;13.112;2023-08-07T09:09:27;4.77;;;1.80;;
2724;SDS011;1370;52.596;13.112;2023-08-07T09:11:52;2.57;;;2.37;;
2724;SDS011;1370;52.596;13.112;2023-08-07T09:14:20;4.93;;;2.80;;
2724;SDS011;1370;52.596;13.112;2023-08-07T09:16:47;2.80;;;2.40;;
2724;SDS011;1370;52.596;13.112;2023-08-07T09:19:13;3.67;;;2.60;;
2724;SDS011;1370;52.596;13.112;2023-08-07T09:21:38;6.83;;;2.70;;
2724;SDS011;1370;52.596;13.112;2023-08-07T09:24:04;3.00;;;2.70;;
2724;SDS011;1370;52.596;13.112;2023-08-07T09:26:29;5.80;;;2.60;;
2724;SDS011;1370;52.596;13.112;2023-08-07T09:28:57;4.70;;;2.00;;
2724;SDS011;1370;52.596;13.112;2023-08-07T09:31:23;2.53;;;2.33;;
2724;SDS011;1370;52.596;13.112;2023-08-07T09:33:51;8.40;;;2.43;;
2724;SDS011;1370;52.596;13.112;2023-08-07T09:36:17;8.17;;;2.33;;
2724;SDS011;1370;52.596;13.112;2023-08-07T09:38:43;3.50;;;2.30;;
2724;SDS011;1370;52.596;13.112;2023-08-07T09:41:09;2.20;;;2.00;;
2724;SDS011;1370;52.596;13.112;2023-08-07T09:43:35;2.30;;;2.03;;
2724;SDS011;1370;52.596;13.112;2023-08-07T09:46:01;3.73;;;2.33;;
2724;SDS011;1370;52.596;13.112;2023-08-07T09:48:30;2.13;;;1.93;;
2724;SDS011;1370;52.596;13.112;2023-08-07T09:50:59;3.10;;;2.10;;
2724;SDS011;1370;52.596;13.112;2023-08-07T09:53:26;2.87;;;1.50;;
2724;SDS011;1370;52.596;13.112;2023-08-07T09:55:55;4.97;;;2.50;;
2724;SDS011;1370;52.596;13.112;2023-08-07T09:58:23;6.13;;;2.33;;
2724;SDS011;1370;52.596;13.112;2023-08-07T10:00:49;4.20;;;2.30;;
2724;SDS011;1370;52.596;13.112;2023-08-07T10:03:15;2.67;;;1.90;;
2724;SDS011;1370;52.596;13.112;2023-08-07T10:05:42;8.17;;;1.87;;
2724;SDS011;1370;52.596;13.112;2023-08-07T10:08:08;4.07;;;1.90;;
2724;SDS011;1370;52.596;13.112;2023-08-07T10:10:33;3.97;;;2.03;;
2724;SDS011;1370;52.596;13.112;2023-08-07T10:13:00;4.90;;;1.70;;
2724;SDS011;1370;52.596;13.112;2023-08-07T10:15:26;2.70;;;1.40;;
2724;SDS011;1370;52.596;13.112;2023-08-07T10:17:52;6.77;;;1.87;;
2724;SDS011;1370;52.596;13.112;2023-08-07T10:20:17;4.63;;;1.60;;
2724;SDS011;1370;52.596;13.112;2023-08-07T10:22:42;2.60;;;1.97;;
2724;SDS011;1370;52.596;13.112;2023-08-07T10:25:09;3.80;;;1.63;;
2724;SDS011;1370;52.596;13.112;2023-08-07T10:27:36;3.63;;;1.93;;
2724;SDS011;1370;52.596;13.112;2023-08-07T10:30:03;4.77;;;2.40;;
2724;SDS011;1370;52.596;13.112;2023-08-07T10:32:31;6.13;;;2.53;;
2724;SDS011;1370;52.596;13.112;2023-08-07T10:34:56;4.13;;;1.87;;
2724;SDS011;1370;52.596;13.112;2023-08-07T10:37:41;2.43;;;1.30;;
2724;SDS011;1370;52.596;13.112;2023-08-07T10:40:08;4.20;;;1.77;;
2724;SDS011;1370;52.596;13.112;2023-08-07T10:45:25;1.90;;;1.60;;
2724;SDS011;1370;52.596;13.112;2023-08-07T10:48:10;4.00;;;1.97;;
2724;SDS011;1370;52.596;13.112;2023-08-07T10:50:50;3.67;;;2.10;;
2724;SDS011;1370;52.596;13.112;2023-08-07T10:53:31;3.23;;;2.00;;
2724;SDS011;1370;52.596;13.112;2023-08-07T10:55:57;3.60;;;2.70;;
2724;SDS011;1370;52.596;13.112;2023-08-07T10:58:29;19.77;;;2.73;;
2724;SDS011;1370;52.596;13.112;2023-08-07T11:03:44;4.43;;;2.93;;
2724;SDS011;1370;52.596;13.112;2023-08-07T11:06:10;2.50;;;2.20;;
2724;SDS011;1370;52.596;13.112;2023-08-07T11:08:36;2.50;;;2.23;;
2724;SDS011;1370;52.596;13.112;2023-08-07T11:11:05;3.50;;;1.90;;
2724;SDS011;1370;52.596;13.112;2023-08-07T11:13:31;2.43;;;2.10;;
2724;SDS011;1370;52.596;13.112;2023-08-07T11:15:56;3.30;;;2.10;;
2724;SDS011;1370;52.596;13.112;2023-08-07T11:18:22;3.10;;;2.70;;
2724;SDS011;1370;52.596;13.112;2023-08-07T11:20:47;6.70;;;3.00;;
2724;SDS011;1370;52.596;13.112;2023-08-07T11:23:13;3.00;;;2.10;;
2724;SDS011;1370;52.596;13.112;2023-08-07T11:25:38;3.00;;;2.03;;
2724;SDS011;1370;52.596;13.112;2023-08-07T11:28:03;5.70;;;2.43;;
2724;SDS011;1370;52.596;13.112;2023-08-07T11:30:28;4.93;;;3.13;;
2724;SDS011;1370;52.596;13.112;2023-08-07T11:32:54;4.40;;;2.27;;
2724;SDS011;1370;52.596;13.112;2023-08-07T11:35:19;5.00;;;2.30;;
2724;SDS011;1370;52.596;13.112;2023-08-07T11:37:45;3.30;;;2.53;;
2724;SDS011;1370;52.596;13.112;2023-08-07T11:40:12;3.40;;;2.90;;
2724;SDS011;1370;52.596;13.112;2023-08-07T11:42:37;3.60;;;2.40;;
2724;SDS011;1370;52.596;13.112;2023-08-07T11:45:03;8.20;;;2.97;;
2724;SDS011;1370;52.596;13.112;2023-08-07T11:47:29;5.13;;;2.30;;
2724;SDS011;1370;52.596;13.112;2023-08-07T11:49:55;6.13;;;2.97;;
2724;SDS011;1370;52.596;13.112;2023-08-07T11:52:20;3.07;;;2.77;;
2724;SDS011;1370;52.596;13.112;2023-08-07T11:54:46;5.13;;;2.67;;
2724;SDS011;1370;52.596;13.112;2023-08-07T11:57:16;3.23;;;2.80;;
2724;SDS011;1370;52.596;13.112;2023-08-07T11:59:42;3.40;;;2.20;;
2724;SDS011;1370;52.596;13.112;2023-08-07T12:02:10;2.73;;;2.20;;
2724;SDS011;1370;52.596;13.112;2023-08-07T12:04:39;10.33;;;2.30;;
2724;SDS011;1370;52.596;13.112;2023-08-07T12:07:05;5.00;;;2.43;;
2724;SDS011;1370;52.596;13.112;2023-08-07T12:09:30;2.93;;;2.43;;
2724;SDS011;1370;52.596;13.112;2023-08-07T12:11:56;4.20;;;2.30;;
2724;SDS011;1370;52.596;13.112;2023-08-07T12:14:22;5.20;;;2.70;;
2724;SDS011;1370;52.596;13.112;2023-08-07T12:16:48;3.07;;;2.63;;
2724;SDS011;1370;52.596;13.112;2023-08-07T12:19:13;6.40;;;2.50;;
2724;SDS011;1370;52.596;13.112;2023-08-07T12:21:39;7.20;;;3.40;;
2724;SDS011;1370;52.596;13.112;2023-08-07T12:24:07;12.83;;;4.30;;
2724;SDS011;1370;52.596;13.112;2023-08-07T12:26:32;3.40;;;2.50;;
2724;SDS011;1370;52.596;13.112;2023-08-07T12:28:58;5.50;;;3.00;;
2724;SDS011;1370;52.596;13.112;2023-08-07T12:31:23;5.67;;;2.60;;
2724;SDS011;1370;52.596;13.112;2023-08-07T12:33:48;4.20;;;2.70;;
2724;SDS011;1370;52.596;13.112;2023-08-07T12:36:14;5.33;;;1.77;;
2724;SDS011;1370;52.596;13.112;2023-08-07T12:38:39;8.03;;;3.27;;
2724;SDS011;1370;52.596;13.112;2023-08-07T12:41:05;6.93;;;3.07;;
2724;SDS011;1370;52.596;13.112;2023-08-07T12:43:30;7.03;;;2.50;;
2724;SDS011;1370;52.596;13.112;2023-08-07T12:45:56;5.17;;;2.40;;
2724;SDS011;1370;52.596;13.112;2023-08-07T12:48:21;5.83;;;2.30;;
2724;SDS011;1370;52.596;13.112;2023-08-07T12:50:46;5.30;;;2.20;;
2724;SDS011;1370;52.596;13.112;2023-08-07T12:53:11;6.60;;;3.63;;
2724;SDS011;1370;52.596;13.112;2023-08-07T12:55:37;8.70;;;5.50;;
2724;SDS011;1370;52.596;13.112;2023-08-07T12:58:02;7.73;;;3.17;;
2724;SDS011;1370;52.596;13.112;2023-08-07T13:00:34;17.30;;;13.00;;
2724;SDS011;1370;52.596;13.112;2023-08-07T13:02:59;16.87;;;7.50;;
2724;SDS011;1370;52.596;13.112;2023-08-07T13:05:25;7.30;;;3.70;;
2724;SDS011;1370;52.596;13.112;2023-08-07T13:07:50;5.77;;;2.93;;
2724;SDS011;1370;52.596;13.112;2023-08-07T13:10:19;20.23;;;7.53;;
2724;SDS011;1370;52.596;13.112;2023-08-07T13:12:44;7.90;;;4.53;;
2724;SDS011;1370;52.596;13.112;2023-08-07T13:15:12;9.13;;;4.93;;
2724;SDS011;1370;52.596;13.112;2023-08-07T13:17:38;18.90;;;16.73;;
2724;SDS011;1370;52.596;13.112;2023-08-07T13:20:04;22.53;;;9.87;;
2724;SDS011;1370;52.596;13.112;2023-08-07T13:22:42;15.23;;;13.20;;
2724;SDS011;1370;52.596;13.112;2023-08-07T13:25:11;27.03;;;10.73;;
2724;SDS011;1370;52.596;13.112;2023-08-07T13:27:37;16.90;;;7.83;;
2724;SDS011;1370;52.596;13.112;2023-08-07T13:30:02;22.70;;;6.87;;
2724;SDS011;1370;52.596;13.112;2023-08-07T13:32:28;26.67;;;9.17;;
2724;SDS011;1370;52.596;13.112;2023-08-07T13:34:54;21.60;;;7.40;;
2724;SDS011;1370;52.596;13.112;2023-08-07T13:37:19;19.30;;;7.30;;
2724;SDS011;1370;52.596;13.112;2023-08-07T13:39:45;20.73;;;6.23;;
2724;SDS011;1370;52.596;13.112;2023-08-07T13:42:10;26.70;;;7.80;;
2724;SDS011;1370;52.596;13.112;2023-08-07T13:44:36;29.93;;;16.10;;
2724;SDS011;1370;52.596;13.112;2023-08-07T13:47:01;30.23;;;24.57;;
2724;SDS011;1370;52.596;13.112;2023-08-07T13:49:27;39.53;;;35.53;;
2724;SDS011;1370;52.596;13.112;2023-08-07T13:51:53;31.37;;;23.73;;
2724;SDS011;1370;52.596;13.112;2023-08-07T13:54:18;27.50;;;19.40;;
2724;SDS011;1370;52.596;13.112;2023-08-07T13:56:44;21.23;;;7.77;;
2724;SDS011;1370;52.596;13.112;2023-08-07T13:59:10;18.70;;;5.20;;
2724;SDS011;1370;52.596;13.112;2023-08-07T14:01:35;18.90;;;8.93;;
2724;SDS011;1370;52.596;13.112;2023-08-07T14:04:01;17.50;;;8.57;;
2724;SDS011;1370;52.596;13.112;2023-08-07T14:06:27;19.17;;;7.40;;
2724;SDS011;1370;52.596;13.112;2023-08-07T14:08:52;21.80;;;8.17;;
2724;SDS011;1370;52.596;13.112;2023-08-07T14:11:17;22.83;;;6.30;;
2724;SDS011;1370;52.596;13.112;2023-08-07T14:13:44;15.40;;;6.87;;
2724;SDS011;1370;52.596;13.112;2023-08-07T14:16:10;19.53;;;11.10;;
2724;SDS011;1370;52.596;13.112;2023-08-07T14:18:36;19.40;;;9.10;;
2724;SDS011;1370;52.596;13.112;2023-08-07T14:21:01;17.47;;;11.20;;
2724;SDS011;1370;52.596;13.112;2023-08-07T14:23:26;26.93;;;16.07;;
2724;SDS011;1370;52.596;13.112;2023-08-07T14:25:51;16.43;;;11.40;;
2724;SDS011;1370;52.596;13.112;2023-08-07T14:28:18;15.17;;;7.20;;
2724;SDS011;1370;52.596;13.112;2023-08-07T14:30:43;13.30;;;5.40;;
2724;SDS011;1370;52.596;13.112;2023-08-07T14:33:08;14.53;;;6.27;;
2724;SDS011;1370;52.596;13.112;2023-08-07T14:35:34;13.40;;;4.70;;
2724;SDS011;1370;52.596;13.112;2023-08-07T14:37:59;16.73;;;6.57;;
2724;SDS011;1370;52.596;13.112;2023-08-07T14:40:24;11.30;;;5.70;;
2724;SDS011;1370;52.596;13.112;2023-08-07T14:42:50;10.00;;;6.20;;
2724;SDS011;1370;52.596;13.112;2023-08-07T14:45:15;10.03;;;5.57;;
2724;SDS011;1370;52.596;13.112;2023-08-07T14:47:42;8.33;;;4.00;;
2724;SDS011;1370;52.596;13.112;2023-08-07T14:50:07;6.00;;;3.50;;
2724;SDS011;1370;52.596;13.112;2023-08-07T14:52:33;10.50;;;5.10;;
2724;SDS011;1370;52.596;13.112;2023-08-07T14:54:58;6.63;;;3.67;;
2724;SDS011;1370;52.596;13.112;2023-08-07T14:57:23;7.67;;;3.43;;